sensor_id;sensor_type;location;lat;lon;timestamp;temperature;humidity
38020;DHT22;23829;51.350;17.286;2022-10-31T00:00:55;27.20;42.80
38020;DHT22;23829;51.350;17.286;2022-10-31T00:03:40;27.20;42.70
38020;DHT22;23829;51.350;17.286;2022-10-31T00:06:07;27.20;42.50
38020;DHT22;23829;51.350;17.286;2022-10-31T00:08:34;27.20;42.60
38020;DHT22;23829;51.350;17.286;2022-10-31T00:11:00;27.10;42.90
38020;DHT22;23829;51.350;17.286;2022-10-31T00:13:27;27.00;43.10
38020;DHT22;23829;51.350;17.286;2022-10-31T00:15:53;27.00;43.30
38020;DHT22;23829;51.350;17.286;2022-10-31T00:18:19;27.00;43.30
38020;DHT22;23829;51.350;17.286;2022-10-31T00:20:46;26.90;43.20
38020;DHT22;23829;51.350;17.286;2022-10-31T00:23:12;27.00;43.20
38020;DHT22;23829;51.350;17.286;2022-10-31T00:25:39;27.10;42.70
38020;DHT22;23829;51.350;17.286;2022-10-31T00:28:07;27.00;43.20
38020;DHT22;23829;51.350;17.286;2022-10-31T00:30:35;26.90;43.10
38020;DHT22;23829;51.350;17.286;2022-10-31T00:33:03;26.80;43.10
38020;DHT22;23829;51.350;17.286;2022-10-31T00:35:31;26.80;43.30
38020;DHT22;23829;51.350;17.286;2022-10-31T00:37:58;26.80;43.40
38020;DHT22;23829;51.350;17.286;2022-10-31T00:40:24;26.80;43.30
38020;DHT22;23829;51.350;17.286;2022-10-31T00:42:51;26.80;42.80
38020;DHT22;23829;51.350;17.286;2022-10-31T00:45:18;26.80;42.60
38020;DHT22;23829;51.350;17.286;2022-10-31T00:47:44;26.80;42.50
38020;DHT22;23829;51.350;17.286;2022-10-31T00:50:11;26.80;42.30
38020;DHT22;23829;51.350;17.286;2022-10-31T00:52:38;26.80;42.30
38020;DHT22;23829;51.350;17.286;2022-10-31T00:55:04;26.80;42.70
38020;DHT22;23829;51.350;17.286;2022-10-31T00:57:31;26.70;43.10
38020;DHT22;23829;51.350;17.286;2022-10-31T00:59:57;26.70;43.10
38020;DHT22;23829;51.350;17.286;2022-10-31T01:02:23;26.80;42.80
38020;DHT22;23829;51.350;17.286;2022-10-31T01:04:49;26.80;42.70
38020;DHT22;23829;51.350;17.286;2022-10-31T01:07:16;26.80;42.70
38020;DHT22;23829;51.350;17.286;2022-10-31T01:09:44;26.80;42.70
38020;DHT22;23829;51.350;17.286;2022-10-31T01:12:10;26.70;42.80
38020;DHT22;23829;51.350;17.286;2022-10-31T01:14:43;26.70;42.90
38020;DHT22;23829;51.350;17.286;2022-10-31T01:17:11;26.60;42.80
38020;DHT22;23829;51.350;17.286;2022-10-31T01:19:38;26.60;43.00
38020;DHT22;23829;51.350;17.286;2022-10-31T01:22:05;26.60;43.00
38020;DHT22;23829;51.350;17.286;2022-10-31T01:24:32;26.50;42.80
38020;DHT22;23829;51.350;17.286;2022-10-31T01:26:58;26.60;42.80
38020;DHT22;23829;51.350;17.286;2022-10-31T01:29:25;26.60;42.50
38020;DHT22;23829;51.350;17.286;2022-10-31T01:31:51;26.60;42.40
38020;DHT22;23829;51.350;17.286;2022-10-31T01:34:17;26.50;42.50
38020;DHT22;23829;51.350;17.286;2022-10-31T01:36:45;26.50;42.60
38020;DHT22;23829;51.350;17.286;2022-10-31T01:39:14;26.60;42.40
38020;DHT22;23829;51.350;17.286;2022-10-31T01:41:43;26.70;41.60
38020;DHT22;23829;51.350;17.286;2022-10-31T01:46:47;26.70;41.40
38020;DHT22;23829;51.350;17.286;2022-10-31T01:49:31;26.60;41.60
38020;DHT22;23829;51.350;17.286;2022-10-31T01:54:37;26.50;41.60
38020;DHT22;23829;51.350;17.286;2022-10-31T01:57:06;26.40;41.70
38020;DHT22;23829;51.350;17.286;2022-10-31T01:59:39;26.40;41.80
38020;DHT22;23829;51.350;17.286;2022-10-31T02:02:06;26.30;41.90
38020;DHT22;23829;51.350;17.286;2022-10-31T02:04:34;26.20;42.30
38020;DHT22;23829;51.350;17.286;2022-10-31T02:07:25;26.30;42.20
38020;DHT22;23829;51.350;17.286;2022-10-31T02:09:56;26.20;42.20
38020;DHT22;23829;51.350;17.286;2022-10-31T02:12:24;26.20;42.60
38020;DHT22;23829;51.350;17.286;2022-10-31T02:14:57;26.20;42.50
38020;DHT22;23829;51.350;17.286;2022-10-31T02:17:23;26.20;42.60
38020;DHT22;23829;51.350;17.286;2022-10-31T02:25:58;26.20;42.40
38020;DHT22;23829;51.350;17.286;2022-10-31T02:34:30;26.20;42.50
38020;DHT22;23829;51.350;17.286;2022-10-31T02:37:01;26.20;42.60
38020;DHT22;23829;51.350;17.286;2022-10-31T02:39:39;26.20;42.80
38020;DHT22;23829;51.350;17.286;2022-10-31T02:42:38;26.20;42.90
38020;DHT22;23829;51.350;17.286;2022-10-31T02:47:39;26.20;42.60
38020;DHT22;23829;51.350;17.286;2022-10-31T02:50:16;26.20;42.60
38020;DHT22;23829;51.350;17.286;2022-10-31T02:52:43;26.10;42.60
38020;DHT22;23829;51.350;17.286;2022-10-31T02:58:01;26.20;42.50
38020;DHT22;23829;51.350;17.286;2022-10-31T03:00:32;26.20;42.70
38020;DHT22;23829;51.350;17.286;2022-10-31T03:03:08;26.10;42.80
38020;DHT22;23829;51.350;17.286;2022-10-31T03:16:11;26.10;42.50
38020;DHT22;23829;51.350;17.286;2022-10-31T03:21:25;26.10;42.00
38020;DHT22;23829;51.350;17.286;2022-10-31T03:23:54;26.10;41.80
38020;DHT22;23829;51.350;17.286;2022-10-31T03:26:22;26.20;41.80
38020;DHT22;23829;51.350;17.286;2022-10-31T03:28:53;26.20;41.60
38020;DHT22;23829;51.350;17.286;2022-10-31T03:31:24;26.20;41.50
38020;DHT22;23829;51.350;17.286;2022-10-31T03:33:54;26.20;41.60
38020;DHT22;23829;51.350;17.286;2022-10-31T03:36:22;26.10;41.80
38020;DHT22;23829;51.350;17.286;2022-10-31T03:38:50;26.00;41.60
38020;DHT22;23829;51.350;17.286;2022-10-31T03:41:23;26.00;41.60
38020;DHT22;23829;51.350;17.286;2022-10-31T03:43:58;25.90;41.90
38020;DHT22;23829;51.350;17.286;2022-10-31T03:46:27;25.90;42.00
38020;DHT22;23829;51.350;17.286;2022-10-31T03:48:56;25.90;41.90
38020;DHT22;23829;51.350;17.286;2022-10-31T03:51:47;25.90;42.00
38020;DHT22;23829;51.350;17.286;2022-10-31T03:57:00;25.90;42.00
38020;DHT22;23829;51.350;17.286;2022-10-31T03:59:32;25.90;41.60
38020;DHT22;23829;51.350;17.286;2022-10-31T04:02:10;26.00;41.70
38020;DHT22;23829;51.350;17.286;2022-10-31T04:04:39;25.90;41.80
38020;DHT22;23829;51.350;17.286;2022-10-31T04:07:06;25.90;42.20
38020;DHT22;23829;51.350;17.286;2022-10-31T04:09:37;25.90;42.20
38020;DHT22;23829;51.350;17.286;2022-10-31T04:12:07;25.80;42.50
38020;DHT22;23829;51.350;17.286;2022-10-31T04:14:55;25.80;42.50
38020;DHT22;23829;51.350;17.286;2022-10-31T04:17:27;25.80;42.50
38020;DHT22;23829;51.350;17.286;2022-10-31T04:19:55;25.90;42.30
38020;DHT22;23829;51.350;17.286;2022-10-31T04:22:24;25.90;42.40
38020;DHT22;23829;51.350;17.286;2022-10-31T04:24:52;25.90;42.10
38020;DHT22;23829;51.350;17.286;2022-10-31T04:27:18;25.90;42.10
38020;DHT22;23829;51.350;17.286;2022-10-31T04:29:45;25.90;42.30
38020;DHT22;23829;51.350;17.286;2022-10-31T04:32:12;25.90;42.20
38020;DHT22;23829;51.350;17.286;2022-10-31T04:34:39;25.80;42.80
38020;DHT22;23829;51.350;17.286;2022-10-31T04:37:06;25.80;42.30
38020;DHT22;23829;51.350;17.286;2022-10-31T04:39:32;25.80;42.40
38020;DHT22;23829;51.350;17.286;2022-10-31T04:42:17;25.80;43.00
38020;DHT22;23829;51.350;17.286;2022-10-31T04:44:44;25.80;42.40
38020;DHT22;23829;51.350;17.286;2022-10-31T04:47:10;25.90;42.40
38020;DHT22;23829;51.350;17.286;2022-10-31T04:49:37;25.80;42.50
38020;DHT22;23829;51.350;17.286;2022-10-31T04:52:03;25.80;42.40
38020;DHT22;23829;51.350;17.286;2022-10-31T04:54:30;25.80;42.50
38020;DHT22;23829;51.350;17.286;2022-10-31T04:57:29;25.80;42.40
38020;DHT22;23829;51.350;17.286;2022-10-31T04:59:55;25.80;42.40
38020;DHT22;23829;51.350;17.286;2022-10-31T05:02:23;25.70;42.50
38020;DHT22;23829;51.350;17.286;2022-10-31T05:04:55;25.80;42.40
38020;DHT22;23829;51.350;17.286;2022-10-31T05:07:22;25.80;42.30
38020;DHT22;23829;51.350;17.286;2022-10-31T05:09:49;25.80;42.40
38020;DHT22;23829;51.350;17.286;2022-10-31T05:12:18;25.70;42.30
38020;DHT22;23829;51.350;17.286;2022-10-31T05:15:15;25.80;42.50
38020;DHT22;23829;51.350;17.286;2022-10-31T05:18:00;25.80;42.50
38020;DHT22;23829;51.350;17.286;2022-10-31T05:20:45;25.90;42.10
38020;DHT22;23829;51.350;17.286;2022-10-31T05:23:22;25.90;42.20
38020;DHT22;23829;51.350;17.286;2022-10-31T05:25:49;25.90;42.20
38020;DHT22;23829;51.350;17.286;2022-10-31T05:28:17;25.80;42.20
38020;DHT22;23829;51.350;17.286;2022-10-31T05:30:43;25.90;42.00
38020;DHT22;23829;51.350;17.286;2022-10-31T05:33:13;25.80;42.30
38020;DHT22;23829;51.350;17.286;2022-10-31T05:36:06;25.70;42.50
38020;DHT22;23829;51.350;17.286;2022-10-31T05:38:36;25.80;42.40
38020;DHT22;23829;51.350;17.286;2022-10-31T05:41:19;25.90;42.40
38020;DHT22;23829;51.350;17.286;2022-10-31T05:43:47;25.90;43.20
38020;DHT22;23829;51.350;17.286;2022-10-31T05:46:15;25.80;42.50
38020;DHT22;23829;51.350;17.286;2022-10-31T05:49:05;25.80;42.60
38020;DHT22;23829;51.350;17.286;2022-10-31T05:51:49;25.80;42.50
38020;DHT22;23829;51.350;17.286;2022-10-31T05:54:17;25.70;42.70
38020;DHT22;23829;51.350;17.286;2022-10-31T05:56:45;25.70;42.80
38020;DHT22;23829;51.350;17.286;2022-10-31T05:59:12;25.70;43.00
38020;DHT22;23829;51.350;17.286;2022-10-31T06:01:39;25.60;43.20
38020;DHT22;23829;51.350;17.286;2022-10-31T06:04:13;25.70;43.00
38020;DHT22;23829;51.350;17.286;2022-10-31T06:06:41;25.70;43.20
38020;DHT22;23829;51.350;17.286;2022-10-31T06:09:08;25.70;43.10
38020;DHT22;23829;51.350;17.286;2022-10-31T06:11:35;25.70;43.30
38020;DHT22;23829;51.350;17.286;2022-10-31T06:14:02;25.70;43.20
38020;DHT22;23829;51.350;17.286;2022-10-31T06:16:35;25.70;43.50
38020;DHT22;23829;51.350;17.286;2022-10-31T06:19:21;25.80;43.60
38020;DHT22;23829;51.350;17.286;2022-10-31T06:21:47;25.80;43.60
38020;DHT22;23829;51.350;17.286;2022-10-31T06:24:14;25.90;43.60
38020;DHT22;23829;51.350;17.286;2022-10-31T06:26:55;26.00;43.60
38020;DHT22;23829;51.350;17.286;2022-10-31T06:29:22;25.90;43.80
38020;DHT22;23829;51.350;17.286;2022-10-31T06:32:01;25.90;43.90
38020;DHT22;23829;51.350;17.286;2022-10-31T06:34:28;26.00;44.10
38020;DHT22;23829;51.350;17.286;2022-10-31T06:36:55;26.10;44.30
38020;DHT22;23829;51.350;17.286;2022-10-31T06:39:24;26.10;44.30
38020;DHT22;23829;51.350;17.286;2022-10-31T06:41:51;26.00;44.40
38020;DHT22;23829;51.350;17.286;2022-10-31T06:44:20;26.20;44.90
38020;DHT22;23829;51.350;17.286;2022-10-31T06:47:06;26.30;44.60
38020;DHT22;23829;51.350;17.286;2022-10-31T06:49:33;26.30;44.80
38020;DHT22;23829;51.350;17.286;2022-10-31T06:52:02;26.30;44.80
38020;DHT22;23829;51.350;17.286;2022-10-31T06:54:29;26.50;44.80
38020;DHT22;23829;51.350;17.286;2022-10-31T06:56:55;26.60;45.10
38020;DHT22;23829;51.350;17.286;2022-10-31T06:59:22;26.50;45.10
38020;DHT22;23829;51.350;17.286;2022-10-31T07:02:11;26.60;45.20
38020;DHT22;23829;51.350;17.286;2022-10-31T07:04:40;26.70;45.30
38020;DHT22;23829;51.350;17.286;2022-10-31T07:07:07;26.70;45.40
38020;DHT22;23829;51.350;17.286;2022-10-31T07:09:34;26.70;45.40
38020;DHT22;23829;51.350;17.286;2022-10-31T07:12:03;26.90;45.80
38020;DHT22;23829;51.350;17.286;2022-10-31T07:14:32;26.90;45.80
38020;DHT22;23829;51.350;17.286;2022-10-31T07:16:58;26.90;45.40
38020;DHT22;23829;51.350;17.286;2022-10-31T07:19:32;27.00;45.70
38020;DHT22;23829;51.350;17.286;2022-10-31T07:21:58;27.10;45.60
38020;DHT22;23829;51.350;17.286;2022-10-31T07:24:28;27.20;45.40
38020;DHT22;23829;51.350;17.286;2022-10-31T07:27:27;27.20;45.40
38020;DHT22;23829;51.350;17.286;2022-10-31T07:29:54;27.30;45.60
38020;DHT22;23829;51.350;17.286;2022-10-31T07:32:20;27.40;45.20
38020;DHT22;23829;51.350;17.286;2022-10-31T07:34:52;27.40;45.20
38020;DHT22;23829;51.350;17.286;2022-10-31T07:37:27;27.50;44.80
38020;DHT22;23829;51.350;17.286;2022-10-31T07:39:55;27.60;44.70
38020;DHT22;23829;51.350;17.286;2022-10-31T07:42:21;27.60;45.00
38020;DHT22;23829;51.350;17.286;2022-10-31T07:44:49;27.70;44.90
38020;DHT22;23829;51.350;17.286;2022-10-31T07:50:29;27.60;44.20
38020;DHT22;23829;51.350;17.286;2022-10-31T07:53:10;27.60;44.20
38020;DHT22;23829;51.350;17.286;2022-10-31T07:55:57;27.70;44.50
38020;DHT22;23829;51.350;17.286;2022-10-31T07:58:28;27.70;44.10
38020;DHT22;23829;51.350;17.286;2022-10-31T08:00:58;27.90;44.00
38020;DHT22;23829;51.350;17.286;2022-10-31T08:03:33;27.90;43.80
38020;DHT22;23829;51.350;17.286;2022-10-31T08:06:18;27.80;43.80
38020;DHT22;23829;51.350;17.286;2022-10-31T08:08:57;27.80;43.80
38020;DHT22;23829;51.350;17.286;2022-10-31T08:11:23;27.90;43.80
38020;DHT22;23829;51.350;17.286;2022-10-31T08:13:49;28.00;43.20
38020;DHT22;23829;51.350;17.286;2022-10-31T08:16:16;28.20;43.30
38020;DHT22;23829;51.350;17.286;2022-10-31T08:18:51;28.20;43.20
38020;DHT22;23829;51.350;17.286;2022-10-31T08:21:19;28.20;42.60
38020;DHT22;23829;51.350;17.286;2022-10-31T08:23:46;28.20;42.60
38020;DHT22;23829;51.350;17.286;2022-10-31T08:26:14;28.30;42.90
38020;DHT22;23829;51.350;17.286;2022-10-31T08:28:40;28.20;42.80
38020;DHT22;23829;51.350;17.286;2022-10-31T08:31:07;28.30;42.70
38020;DHT22;23829;51.350;17.286;2022-10-31T08:33:39;28.40;42.70
38020;DHT22;23829;51.350;17.286;2022-10-31T08:36:19;28.50;42.70
38020;DHT22;23829;51.350;17.286;2022-10-31T08:39:04;28.50;42.70
38020;DHT22;23829;51.350;17.286;2022-10-31T08:41:31;28.70;42.30
38020;DHT22;23829;51.350;17.286;2022-10-31T08:43:59;28.50;42.60
38020;DHT22;23829;51.350;17.286;2022-10-31T08:46:25;28.40;42.80
38020;DHT22;23829;51.350;17.286;2022-10-31T08:48:52;28.40;42.80
38020;DHT22;23829;51.350;17.286;2022-10-31T08:51:20;28.60;42.20
38020;DHT22;23829;51.350;17.286;2022-10-31T08:53:50;28.50;42.60
38020;DHT22;23829;51.350;17.286;2022-10-31T08:56:35;28.20;43.00
38020;DHT22;23829;51.350;17.286;2022-10-31T08:59:05;28.50;42.80
38020;DHT22;23829;51.350;17.286;2022-10-31T09:01:58;28.60;42.70
38020;DHT22;23829;51.350;17.286;2022-10-31T09:04:25;28.50;42.40
38020;DHT22;23829;51.350;17.286;2022-10-31T09:06:51;28.80;42.40
38020;DHT22;23829;51.350;17.286;2022-10-31T09:09:17;28.80;42.50
38020;DHT22;23829;51.350;17.286;2022-10-31T09:11:44;28.60;42.40
38020;DHT22;23829;51.350;17.286;2022-10-31T09:14:10;28.50;42.50
38020;DHT22;23829;51.350;17.286;2022-10-31T09:16:42;28.50;42.70
38020;DHT22;23829;51.350;17.286;2022-10-31T09:19:15;28.60;42.70
38020;DHT22;23829;51.350;17.286;2022-10-31T09:21:45;28.70;42.50
38020;DHT22;23829;51.350;17.286;2022-10-31T09:24:12;28.90;42.30
38020;DHT22;23829;51.350;17.286;2022-10-31T09:26:40;29.10;42.20
38020;DHT22;23829;51.350;17.286;2022-10-31T09:29:14;29.10;42.00
38020;DHT22;23829;51.350;17.286;2022-10-31T09:31:40;29.10;42.20
38020;DHT22;23829;51.350;17.286;2022-10-31T09:34:17;29.00;42.30
38020;DHT22;23829;51.350;17.286;2022-10-31T09:36:48;29.00;42.40
38020;DHT22;23829;51.350;17.286;2022-10-31T09:39:20;29.00;42.60
38020;DHT22;23829;51.350;17.286;2022-10-31T09:51:25;29.00;42.90
38020;DHT22;23829;51.350;17.286;2022-10-31T09:54:14;29.10;42.70
38020;DHT22;23829;51.350;17.286;2022-10-31T09:56:42;29.00;43.00
38020;DHT22;23829;51.350;17.286;2022-10-31T09:59:26;29.10;42.80
38020;DHT22;23829;51.350;17.286;2022-10-31T10:01:55;29.10;42.90
38020;DHT22;23829;51.350;17.286;2022-10-31T10:04:42;29.40;42.70
38020;DHT22;23829;51.350;17.286;2022-10-31T10:10:55;29.20;43.10
38020;DHT22;23829;51.350;17.286;2022-10-31T10:19:48;29.30;43.00
38020;DHT22;23829;51.350;17.286;2022-10-31T10:33:10;29.80;42.70
38020;DHT22;23829;51.350;17.286;2022-10-31T10:35:50;29.90;42.20
38020;DHT22;23829;51.350;17.286;2022-10-31T10:40:50;30.00;42.40
38020;DHT22;23829;51.350;17.286;2022-10-31T10:43:34;30.20;42.20
38020;DHT22;23829;51.350;17.286;2022-10-31T10:46:19;30.30;42.00
38020;DHT22;23829;51.350;17.286;2022-10-31T10:49:19;30.20;41.60
38020;DHT22;23829;51.350;17.286;2022-10-31T10:51:57;30.20;41.90
38020;DHT22;23829;51.350;17.286;2022-10-31T10:54:46;30.40;41.70
38020;DHT22;23829;51.350;17.286;2022-10-31T10:57:44;30.50;42.00
38020;DHT22;23829;51.350;17.286;2022-10-31T11:00:27;30.40;41.70
38020;DHT22;23829;51.350;17.286;2022-10-31T11:02:55;30.50;41.40
38020;DHT22;23829;51.350;17.286;2022-10-31T11:07:54;30.60;41.50
38020;DHT22;23829;51.350;17.286;2022-10-31T11:10:21;30.60;41.20
38020;DHT22;23829;51.350;17.286;2022-10-31T11:15:32;30.50;41.50
38020;DHT22;23829;51.350;17.286;2022-10-31T11:17:59;30.40;41.40
38020;DHT22;23829;51.350;17.286;2022-10-31T11:20:33;30.50;41.40
38020;DHT22;23829;51.350;17.286;2022-10-31T11:23:19;30.40;41.60
38020;DHT22;23829;51.350;17.286;2022-10-31T11:26:05;30.40;41.80
38020;DHT22;23829;51.350;17.286;2022-10-31T11:28:33;30.60;41.80
38020;DHT22;23829;51.350;17.286;2022-10-31T11:31:12;30.60;41.10
38020;DHT22;23829;51.350;17.286;2022-10-31T11:34:00;30.60;41.30
38020;DHT22;23829;51.350;17.286;2022-10-31T11:36:31;30.60;41.30
38020;DHT22;23829;51.350;17.286;2022-10-31T11:39:00;30.50;41.40
38020;DHT22;23829;51.350;17.286;2022-10-31T11:41:28;30.30;41.80
38020;DHT22;23829;51.350;17.286;2022-10-31T11:43:58;30.30;41.80
38020;DHT22;23829;51.350;17.286;2022-10-31T11:46:50;30.20;41.80
38020;DHT22;23829;51.350;17.286;2022-10-31T11:49:39;30.20;42.10
38020;DHT22;23829;51.350;17.286;2022-10-31T11:52:25;30.50;42.30
38020;DHT22;23829;51.350;17.286;2022-10-31T11:54:58;30.50;41.70
38020;DHT22;23829;51.350;17.286;2022-10-31T11:57:30;30.50;41.30
38020;DHT22;23829;51.350;17.286;2022-10-31T12:00:00;30.40;41.30
38020;DHT22;23829;51.350;17.286;2022-10-31T12:02:27;30.50;41.40
38020;DHT22;23829;51.350;17.286;2022-10-31T12:07:59;30.70;41.10
38020;DHT22;23829;51.350;17.286;2022-10-31T12:10:34;30.90;40.60
38020;DHT22;23829;51.350;17.286;2022-10-31T12:15:51;30.80;40.80
38020;DHT22;23829;51.350;17.286;2022-10-31T12:24:27;31.10;40.70
38020;DHT22;23829;51.350;17.286;2022-10-31T12:38:28;30.80;41.20
38020;DHT22;23829;51.350;17.286;2022-10-31T12:59:52;30.80;41.30
38020;DHT22;23829;51.350;17.286;2022-10-31T13:02:38;30.80;41.60
38020;DHT22;23829;51.350;17.286;2022-10-31T13:05:45;30.60;41.60
38020;DHT22;23829;51.350;17.286;2022-10-31T13:08:47;30.70;41.80
38020;DHT22;23829;51.350;17.286;2022-10-31T13:11:25;30.90;41.60
38020;DHT22;23829;51.350;17.286;2022-10-31T13:14:14;31.10;40.90
38020;DHT22;23829;51.350;17.286;2022-10-31T13:16:46;31.00;41.30
38020;DHT22;23829;51.350;17.286;2022-10-31T13:19:23;31.10;41.30
38020;DHT22;23829;51.350;17.286;2022-10-31T13:22:05;31.10;41.10
38020;DHT22;23829;51.350;17.286;2022-10-31T13:24:36;30.90;41.40
38020;DHT22;23829;51.350;17.286;2022-10-31T13:27:26;31.00;41.20
38020;DHT22;23829;51.350;17.286;2022-10-31T13:32:22;30.90;41.70
38020;DHT22;23829;51.350;17.286;2022-10-31T13:34:55;30.90;41.60
38020;DHT22;23829;51.350;17.286;2022-10-31T13:37:36;30.90;41.60
38020;DHT22;23829;51.350;17.286;2022-10-31T13:45:32;31.10;41.90
38020;DHT22;23829;51.350;17.286;2022-10-31T13:50:42;31.10;41.30
38020;DHT22;23829;51.350;17.286;2022-10-31T13:53:19;31.20;41.40
38020;DHT22;23829;51.350;17.286;2022-10-31T13:56:13;31.20;41.20
38020;DHT22;23829;51.350;17.286;2022-10-31T14:01:53;31.30;42.00
38020;DHT22;23829;51.350;17.286;2022-10-31T14:04:24;31.30;41.40
38020;DHT22;23829;51.350;17.286;2022-10-31T14:06:57;31.10;41.60
38020;DHT22;23829;51.350;17.286;2022-10-31T14:09:31;30.90;41.80
38020;DHT22;23829;51.350;17.286;2022-10-31T14:12:06;30.90;41.80
38020;DHT22;23829;51.350;17.286;2022-10-31T14:14:40;31.10;41.90
38020;DHT22;23829;51.350;17.286;2022-10-31T14:17:17;31.20;41.80
38020;DHT22;23829;51.350;17.286;2022-10-31T14:20:20;31.10;41.90
38020;DHT22;23829;51.350;17.286;2022-10-31T14:22:48;31.20;42.10
38020;DHT22;23829;51.350;17.286;2022-10-31T14:25:44;31.20;42.10
38020;DHT22;23829;51.350;17.286;2022-10-31T14:28:33;31.20;41.80
38020;DHT22;23829;51.350;17.286;2022-10-31T14:31:00;31.10;42.10
38020;DHT22;23829;51.350;17.286;2022-10-31T14:33:29;31.10;42.10
38020;DHT22;23829;51.350;17.286;2022-10-31T14:36:19;31.00;41.80
38020;DHT22;23829;51.350;17.286;2022-10-31T14:39:29;31.00;42.10
38020;DHT22;23829;51.350;17.286;2022-10-31T14:47:31;30.80;42.20
38020;DHT22;23829;51.350;17.286;2022-10-31T14:52:27;30.60;42.30
38020;DHT22;23829;51.350;17.286;2022-10-31T14:54:56;30.70;42.50
38020;DHT22;23829;51.350;17.286;2022-10-31T14:57:25;30.70;41.90
38020;DHT22;23829;51.350;17.286;2022-10-31T14:59:57;30.50;42.00
38020;DHT22;23829;51.350;17.286;2022-10-31T15:02:33;30.50;42.40
38020;DHT22;23829;51.350;17.286;2022-10-31T15:05:10;30.40;42.60
38020;DHT22;23829;51.350;17.286;2022-10-31T15:07:50;30.30;42.40
38020;DHT22;23829;51.350;17.286;2022-10-31T15:12:53;30.20;42.40
38020;DHT22;23829;51.350;17.286;2022-10-31T15:15:26;30.20;42.40
38020;DHT22;23829;51.350;17.286;2022-10-31T15:17:58;30.10;42.40
38020;DHT22;23829;51.350;17.286;2022-10-31T15:20:30;30.10;42.00
38020;DHT22;23829;51.350;17.286;2022-10-31T15:22:59;30.00;42.00
38020;DHT22;23829;51.350;17.286;2022-10-31T15:25:30;30.00;42.30
38020;DHT22;23829;51.350;17.286;2022-10-31T15:27:58;29.90;42.60
38020;DHT22;23829;51.350;17.286;2022-10-31T15:30:27;29.80;42.50
38020;DHT22;23829;51.350;17.286;2022-10-31T15:32:54;29.70;42.70
38020;DHT22;23829;51.350;17.286;2022-10-31T15:35:29;29.70;42.50
38020;DHT22;23829;51.350;17.286;2022-10-31T15:37:57;29.60;42.50
38020;DHT22;23829;51.350;17.286;2022-10-31T15:40:26;29.60;42.50
38020;DHT22;23829;51.350;17.286;2022-10-31T15:42:59;29.60;42.30
38020;DHT22;23829;51.350;17.286;2022-10-31T15:45:27;29.50;42.50
38020;DHT22;23829;51.350;17.286;2022-10-31T15:48:43;29.40;42.60
38020;DHT22;23829;51.350;17.286;2022-10-31T15:50:57;29.40;42.70
38020;DHT22;23829;51.350;17.286;2022-10-31T15:56:00;29.20;42.60
38020;DHT22;23829;51.350;17.286;2022-10-31T15:58:28;29.10;42.70
38020;DHT22;23829;51.350;17.286;2022-10-31T16:01:03;29.10;42.80
38020;DHT22;23829;51.350;17.286;2022-10-31T16:03:31;29.10;42.70
38020;DHT22;23829;51.350;17.286;2022-10-31T16:06:03;29.00;42.90
38020;DHT22;23829;51.350;17.286;2022-10-31T16:08:32;29.00;42.90
38020;DHT22;23829;51.350;17.286;2022-10-31T16:11:14;28.90;42.90
38020;DHT22;23829;51.350;17.286;2022-10-31T16:14:06;28.80;42.70
38020;DHT22;23829;51.350;17.286;2022-10-31T16:16:46;28.80;42.60
38020;DHT22;23829;51.350;17.286;2022-10-31T16:19:33;28.70;42.90
38020;DHT22;23829;51.350;17.286;2022-10-31T16:22:11;28.60;42.90
38020;DHT22;23829;51.350;17.286;2022-10-31T16:25:00;28.60;42.90
38020;DHT22;23829;51.350;17.286;2022-10-31T16:27:30;28.60;43.10
38020;DHT22;23829;51.350;17.286;2022-10-31T16:29:58;28.60;42.80
38020;DHT22;23829;51.350;17.286;2022-10-31T16:37:40;28.40;42.70
38020;DHT22;23829;51.350;17.286;2022-10-31T16:40:10;28.30;42.80
38020;DHT22;23829;51.350;17.286;2022-10-31T16:42:39;28.30;42.90
38020;DHT22;23829;51.350;17.286;2022-10-31T16:45:07;28.30;42.20
38020;DHT22;23829;51.350;17.286;2022-10-31T16:47:33;28.30;42.20
38020;DHT22;23829;51.350;17.286;2022-10-31T16:50:00;28.30;43.00
38020;DHT22;23829;51.350;17.286;2022-10-31T16:52:27;28.20;42.40
38020;DHT22;23829;51.350;17.286;2022-10-31T16:54:54;28.10;42.10
38020;DHT22;23829;51.350;17.286;2022-10-31T16:57:26;28.10;42.20
38020;DHT22;23829;51.350;17.286;2022-10-31T16:59:53;28.10;42.50
38020;DHT22;23829;51.350;17.286;2022-10-31T17:02:20;28.00;42.40
38020;DHT22;23829;51.350;17.286;2022-10-31T17:04:47;28.00;42.60
38020;DHT22;23829;51.350;17.286;2022-10-31T17:07:13;28.00;42.40
38020;DHT22;23829;51.350;17.286;2022-10-31T17:09:40;28.00;42.10
38020;DHT22;23829;51.350;17.286;2022-10-31T17:12:12;28.00;42.60
38020;DHT22;23829;51.350;17.286;2022-10-31T17:14:40;27.90;42.60
38020;DHT22;23829;51.350;17.286;2022-10-31T17:17:07;27.90;42.40
38020;DHT22;23829;51.350;17.286;2022-10-31T17:19:34;28.00;42.10
38020;DHT22;23829;51.350;17.286;2022-10-31T17:22:01;28.00;41.90
38020;DHT22;23829;51.350;17.286;2022-10-31T17:24:28;27.90;42.20
38020;DHT22;23829;51.350;17.286;2022-10-31T17:26:55;27.80;42.40
38020;DHT22;23829;51.350;17.286;2022-10-31T17:29:21;27.80;42.50
38020;DHT22;23829;51.350;17.286;2022-10-31T17:31:48;27.80;41.70
38020;DHT22;23829;51.350;17.286;2022-10-31T17:34:14;27.90;40.90
38020;DHT22;23829;51.350;17.286;2022-10-31T17:36:41;27.90;40.90
38020;DHT22;23829;51.350;17.286;2022-10-31T17:39:09;27.70;41.10
38020;DHT22;23829;51.350;17.286;2022-10-31T17:41:35;27.70;41.30
38020;DHT22;23829;51.350;17.286;2022-10-31T17:44:02;27.60;41.60
38020;DHT22;23829;51.350;17.286;2022-10-31T17:46:28;27.50;41.70
38020;DHT22;23829;51.350;17.286;2022-10-31T17:48:55;27.50;41.90
38020;DHT22;23829;51.350;17.286;2022-10-31T17:51:22;27.40;41.80
38020;DHT22;23829;51.350;17.286;2022-10-31T17:53:49;27.40;41.50
38020;DHT22;23829;51.350;17.286;2022-10-31T17:56:15;27.40;41.60
38020;DHT22;23829;51.350;17.286;2022-10-31T17:58:42;27.40;41.60
38020;DHT22;23829;51.350;17.286;2022-10-31T18:01:10;27.40;42.10
38020;DHT22;23829;51.350;17.286;2022-10-31T18:03:38;27.30;41.90
38020;DHT22;23829;51.350;17.286;2022-10-31T18:06:05;27.30;41.50
38020;DHT22;23829;51.350;17.286;2022-10-31T18:08:34;27.40;41.20
38020;DHT22;23829;51.350;17.286;2022-10-31T18:11:05;27.40;41.10
38020;DHT22;23829;51.350;17.286;2022-10-31T18:13:35;27.30;41.40
38020;DHT22;23829;51.350;17.286;2022-10-31T18:16:09;27.20;41.80
38020;DHT22;23829;51.350;17.286;2022-10-31T18:18:36;27.20;41.90
38020;DHT22;23829;51.350;17.286;2022-10-31T18:21:02;27.20;41.50